sensor_id;sensor_type;location;lat;lon;timestamp;P1;durP1;ratioP1;P2;durP2;ratioP2
11797;SDS011;5956;51.428;6.682;2023-12-20T00:00:25;12.27;;;10.23;;
11797;SDS011;5956;51.428;6.682;2023-12-20T00:02:52;14.37;;;10.87;;
11797;SDS011;5956;51.428;6.682;2023-12-20T00:05:18;12.40;;;10.63;;
11797;SDS011;5956;51.428;6.682;2023-12-20T00:07:44;14.17;;;9.80;;
11797;SDS011;5956;51.428;6.682;2023-12-20T00:10:11;11.47;;;10.13;;
11797;SDS011;5956;51.428;6.682;2023-12-20T00:12:38;12.83;;;9.57;;
11797;SDS011;5956;51.428;6.682;2023-12-20T00:15:06;14.57;;;10.37;;
11797;SDS011;5956;51.428;6.682;2023-12-20T00:17:34;13.60;;;9.47;;
11797;SDS011;5956;51.428;6.682;2023-12-20T00:20:00;13.07;;;9.73;;
11797;SDS011;5956;51.428;6.682;2023-12-20T00:22:27;10.93;;;9.27;;
11797;SDS011;5956;51.428;6.682;2023-12-20T00:24:53;13.77;;;9.20;;
11797;SDS011;5956;51.428;6.682;2023-12-20T00:27:19;13.97;;;9.87;;
11797;SDS011;5956;51.428;6.682;2023-12-20T00:29:46;12.50;;;9.17;;
11797;SDS011;5956;51.428;6.682;2023-12-20T00:32:15;15.60;;;8.50;;
11797;SDS011;5956;51.428;6.682;2023-12-20T00:34:43;12.43;;;8.23;;
11797;SDS011;5956;51.428;6.682;2023-12-20T00:37:09;12.53;;;9.27;;
11797;SDS011;5956;51.428;6.682;2023-12-20T00:39:36;12.97;;;8.20;;
11797;SDS011;5956;51.428;6.682;2023-12-20T00:42:02;13.30;;;8.73;;
11797;SDS011;5956;51.428;6.682;2023-12-20T00:44:29;12.57;;;8.93;;
11797;SDS011;5956;51.428;6.682;2023-12-20T00:46:55;9.37;;;7.70;;
11797;SDS011;5956;51.428;6.682;2023-12-20T00:49:22;10.83;;;7.97;;
11797;SDS011;5956;51.428;6.682;2023-12-20T00:51:50;10.63;;;8.50;;
11797;SDS011;5956;51.428;6.682;2023-12-20T00:54:17;17.50;;;9.17;;
11797;SDS011;5956;51.428;6.682;2023-12-20T00:56:44;14.43;;;9.10;;
11797;SDS011;5956;51.428;6.682;2023-12-20T00:59:10;12.13;;;8.63;;
11797;SDS011;5956;51.428;6.682;2023-12-20T01:01:37;12.70;;;9.23;;
11797;SDS011;5956;51.428;6.682;2023-12-20T01:04:03;12.13;;;9.77;;
11797;SDS011;5956;51.428;6.682;2023-12-20T01:06:30;13.23;;;10.27;;
11797;SDS011;5956;51.428;6.682;2023-12-20T01:08:58;14.53;;;10.43;;
11797;SDS011;5956;51.428;6.682;2023-12-20T01:11:24;11.83;;;10.50;;
11797;SDS011;5956;51.428;6.682;2023-12-20T01:13:51;16.00;;;11.00;;
11797;SDS011;5956;51.428;6.682;2023-12-20T01:16:17;15.40;;;9.40;;
11797;SDS011;5956;51.428;6.682;2023-12-20T01:18:44;11.57;;;8.53;;
11797;SDS011;5956;51.428;6.682;2023-12-20T01:21:10;13.43;;;9.03;;
11797;SDS011;5956;51.428;6.682;2023-12-20T01:23:36;14.37;;;8.50;;
11797;SDS011;5956;51.428;6.682;2023-12-20T01:26:04;14.77;;;8.30;;
11797;SDS011;5956;51.428;6.682;2023-12-20T01:28:31;13.97;;;8.60;;
11797;SDS011;5956;51.428;6.682;2023-12-20T01:30:58;13.17;;;8.27;;
11797;SDS011;5956;51.428;6.682;2023-12-20T01:33:24;17.70;;;9.73;;
11797;SDS011;5956;51.428;6.682;2023-12-20T01:35:51;14.37;;;9.10;;
11797;SDS011;5956;51.428;6.682;2023-12-20T01:38:17;13.07;;;9.10;;
11797;SDS011;5956;51.428;6.682;2023-12-20T01:40:45;11.53;;;8.60;;
11797;SDS011;5956;51.428;6.682;2023-12-20T01:43:13;11.00;;;8.23;;
11797;SDS011;5956;51.428;6.682;2023-12-20T01:45:39;12.23;;;8.20;;
11797;SDS011;5956;51.428;6.682;2023-12-20T01:48:06;12.97;;;7.70;;
11797;SDS011;5956;51.428;6.682;2023-12-20T01:50:33;11.40;;;7.80;;
11797;SDS011;5956;51.428;6.682;2023-12-20T01:53:03;18.07;;;8.33;;
11797;SDS011;5956;51.428;6.682;2023-12-20T01:55:31;14.50;;;7.77;;
11797;SDS011;5956;51.428;6.682;2023-12-20T01:57:57;11.13;;;7.53;;
11797;SDS011;5956;51.428;6.682;2023-12-20T02:00:25;13.73;;;7.27;;
11797;SDS011;5956;51.428;6.682;2023-12-20T02:02:53;14.27;;;7.90;;
11797;SDS011;5956;51.428;6.682;2023-12-20T02:05:20;16.70;;;8.30;;
11797;SDS011;5956;51.428;6.682;2023-12-20T02:07:47;11.40;;;8.00;;
11797;SDS011;5956;51.428;6.682;2023-12-20T02:10:13;12.93;;;8.17;;
11797;SDS011;5956;51.428;6.682;2023-12-20T02:12:40;14.10;;;7.87;;
11797;SDS011;5956;51.428;6.682;2023-12-20T02:15:07;15.03;;;7.90;;
11797;SDS011;5956;51.428;6.682;2023-12-20T02:17:35;13.77;;;7.97;;
11797;SDS011;5956;51.428;6.682;2023-12-20T02:20:02;14.67;;;8.23;;
11797;SDS011;5956;51.428;6.682;2023-12-20T02:22:30;14.17;;;7.97;;
11797;SDS011;5956;51.428;6.682;2023-12-20T02:24:56;10.47;;;7.30;;
11797;SDS011;5956;51.428;6.682;2023-12-20T02:27:23;15.17;;;7.40;;
11797;SDS011;5956;51.428;6.682;2023-12-20T02:29:49;14.47;;;7.53;;
11797;SDS011;5956;51.428;6.682;2023-12-20T02:32:16;13.77;;;7.07;;
11797;SDS011;5956;51.428;6.682;2023-12-20T02:34:43;11.73;;;6.80;;
11797;SDS011;5956;51.428;6.682;2023-12-20T02:37:10;13.43;;;7.83;;
11797;SDS011;5956;51.428;6.682;2023-12-20T02:39:38;15.20;;;7.60;;
11797;SDS011;5956;51.428;6.682;2023-12-20T02:42:04;14.27;;;7.60;;
11797;SDS011;5956;51.428;6.682;2023-12-20T02:44:31;14.43;;;6.87;;
11797;SDS011;5956;51.428;6.682;2023-12-20T02:46:57;13.23;;;6.40;;
11797;SDS011;5956;51.428;6.682;2023-12-20T02:49:24;13.77;;;6.23;;
11797;SDS011;5956;51.428;6.682;2023-12-20T02:51:50;13.87;;;7.23;;
11797;SDS011;5956;51.428;6.682;2023-12-20T02:54:17;10.67;;;5.93;;
11797;SDS011;5956;51.428;6.682;2023-12-20T02:56:44;12.90;;;6.00;;
11797;SDS011;5956;51.428;6.682;2023-12-20T02:59:11;13.07;;;6.03;;
11797;SDS011;5956;51.428;6.682;2023-12-20T03:01:41;15.23;;;5.27;;
11797;SDS011;5956;51.428;6.682;2023-12-20T03:04:08;12.20;;;6.20;;
11797;SDS011;5956;51.428;6.682;2023-12-20T03:06:34;12.57;;;5.83;;
11797;SDS011;5956;51.428;6.682;2023-12-20T03:09:01;12.53;;;4.97;;
11797;SDS011;5956;51.428;6.682;2023-12-20T03:11:27;13.80;;;5.43;;
11797;SDS011;5956;51.428;6.682;2023-12-20T03:13:55;9.37;;;4.60;;
11797;SDS011;5956;51.428;6.682;2023-12-20T03:16:22;11.30;;;4.37;;
11797;SDS011;5956;51.428;6.682;2023-12-20T03:18:49;13.83;;;4.50;;
11797;SDS011;5956;51.428;6.682;2023-12-20T03:21:15;10.57;;;4.00;;
11797;SDS011;5956;51.428;6.682;2023-12-20T03:23:42;14.57;;;4.67;;
11797;SDS011;5956;51.428;6.682;2023-12-20T03:26:09;17.13;;;4.30;;
11797;SDS011;5956;51.428;6.682;2023-12-20T03:28:36;10.07;;;3.73;;
11797;SDS011;5956;51.428;6.682;2023-12-20T03:31:04;10.53;;;3.50;;
11797;SDS011;5956;51.428;6.682;2023-12-20T03:33:30;10.37;;;3.40;;
11797;SDS011;5956;51.428;6.682;2023-12-20T03:35:57;10.43;;;3.67;;
11797;SDS011;5956;51.428;6.682;2023-12-20T03:38:23;11.77;;;3.73;;
11797;SDS011;5956;51.428;6.682;2023-12-20T03:40:50;10.63;;;3.63;;
11797;SDS011;5956;51.428;6.682;2023-12-20T03:43:16;10.53;;;3.50;;
11797;SDS011;5956;51.428;6.682;2023-12-20T03:45:43;12.27;;;4.17;;
11797;SDS011;5956;51.428;6.682;2023-12-20T03:48:11;14.60;;;3.90;;
11797;SDS011;5956;51.428;6.682;2023-12-20T03:50:37;7.47;;;3.73;;
11797;SDS011;5956;51.428;6.682;2023-12-20T03:53:04;12.13;;;3.60;;
11797;SDS011;5956;51.428;6.682;2023-12-20T03:55:30;11.20;;;4.13;;
11797;SDS011;5956;51.428;6.682;2023-12-20T03:57:56;11.27;;;3.83;;
11797;SDS011;5956;51.428;6.682;2023-12-20T04:00:23;12.00;;;4.10;;
11797;SDS011;5956;51.428;6.682;2023-12-20T04:02:49;8.60;;;3.27;;
11797;SDS011;5956;51.428;6.682;2023-12-20T04:05:17;10.27;;;3.83;;
11797;SDS011;5956;51.428;6.682;2023-12-20T04:07:44;12.67;;;4.53;;
11797;SDS011;5956;51.428;6.682;2023-12-20T04:10:11;12.13;;;4.13;;
11797;SDS011;5956;51.428;6.682;2023-12-20T04:12:37;14.93;;;3.80;;
11797;SDS011;5956;51.428;6.682;2023-12-20T04:15:04;9.93;;;3.53;;
11797;SDS011;5956;51.428;6.682;2023-12-20T04:17:34;16.97;;;4.70;;
11797;SDS011;5956;51.428;6.682;2023-12-20T04:20:00;9.27;;;3.77;;
11797;SDS011;5956;51.428;6.682;2023-12-20T04:22:28;10.67;;;3.90;;
11797;SDS011;5956;51.428;6.682;2023-12-20T04:24:55;14.03;;;3.63;;
11797;SDS011;5956;51.428;6.682;2023-12-20T04:27:21;11.97;;;3.87;;
11797;SDS011;5956;51.428;6.682;2023-12-20T04:29:48;11.87;;;3.80;;
11797;SDS011;5956;51.428;6.682;2023-12-20T04:32:14;16.17;;;4.70;;
11797;SDS011;5956;51.428;6.682;2023-12-20T04:34:40;13.20;;;4.40;;
11797;SDS011;5956;51.428;6.682;2023-12-20T04:37:07;14.73;;;4.67;;
11797;SDS011;5956;51.428;6.682;2023-12-20T04:39:35;13.33;;;4.87;;
11797;SDS011;5956;51.428;6.682;2023-12-20T04:42:01;11.40;;;3.90;;
11797;SDS011;5956;51.428;6.682;2023-12-20T04:44:28;12.13;;;4.20;;
11797;SDS011;5956;51.428;6.682;2023-12-20T04:46:54;12.60;;;4.27;;
11797;SDS011;5956;51.428;6.682;2023-12-20T04:49:21;14.67;;;6.23;;
11797;SDS011;5956;51.428;6.682;2023-12-20T04:51:48;11.40;;;4.70;;
11797;SDS011;5956;51.428;6.682;2023-12-20T04:54:14;8.70;;;4.70;;
11797;SDS011;5956;51.428;6.682;2023-12-20T04:56:42;12.33;;;5.37;;
11797;SDS011;5956;51.428;6.682;2023-12-20T04:59:08;15.93;;;6.67;;
11797;SDS011;5956;51.428;6.682;2023-12-20T05:01:35;16.93;;;9.90;;
11797;SDS011;5956;51.428;6.682;2023-12-20T05:04:02;16.33;;;5.80;;
11797;SDS011;5956;51.428;6.682;2023-12-20T05:06:29;17.33;;;6.90;;
11797;SDS011;5956;51.428;6.682;2023-12-20T05:08:55;17.57;;;6.23;;
11797;SDS011;5956;51.428;6.682;2023-12-20T05:11:22;14.50;;;6.40;;
11797;SDS011;5956;51.428;6.682;2023-12-20T05:13:49;18.57;;;6.50;;
11797;SDS011;5956;51.428;6.682;2023-12-20T05:16:16;17.93;;;6.53;;
11797;SDS011;5956;51.428;6.682;2023-12-20T05:18:43;17.90;;;6.20;;
11797;SDS011;5956;51.428;6.682;2023-12-20T05:21:09;18.60;;;6.77;;
11797;SDS011;5956;51.428;6.682;2023-12-20T05:23:36;18.37;;;6.87;;
11797;SDS011;5956;51.428;6.682;2023-12-20T05:26:02;19.30;;;6.60;;
11797;SDS011;5956;51.428;6.682;2023-12-20T05:28:29;16.47;;;6.30;;
11797;SDS011;5956;51.428;6.682;2023-12-20T05:30:57;15.67;;;6.23;;
11797;SDS011;5956;51.428;6.682;2023-12-20T05:33:23;13.23;;;6.33;;
11797;SDS011;5956;51.428;6.682;2023-12-20T05:35:50;14.60;;;6.63;;
11797;SDS011;5956;51.428;6.682;2023-12-20T05:38:16;16.17;;;6.57;;
11797;SDS011;5956;51.428;6.682;2023-12-20T05:40:43;16.10;;;5.73;;
11797;SDS011;5956;51.428;6.682;2023-12-20T05:43:09;14.03;;;6.47;;
11797;SDS011;5956;51.428;6.682;2023-12-20T05:45:36;14.20;;;5.80;;
11797;SDS011;5956;51.428;6.682;2023-12-20T05:48:04;15.87;;;6.43;;
11797;SDS011;5956;51.428;6.682;2023-12-20T05:50:31;14.23;;;6.80;;
11797;SDS011;5956;51.428;6.682;2023-12-20T05:52:57;15.73;;;6.73;;
11797;SDS011;5956;51.428;6.682;2023-12-20T05:55:24;15.57;;;5.93;;
11797;SDS011;5956;51.428;6.682;2023-12-20T05:57:50;13.60;;;6.13;;
11797;SDS011;5956;51.428;6.682;2023-12-20T06:00:17;17.13;;;6.77;;
11797;SDS011;5956;51.428;6.682;2023-12-20T06:02:44;18.20;;;7.83;;
11797;SDS011;5956;51.428;6.682;2023-12-20T06:05:12;19.20;;;6.67;;
11797;SDS011;5956;51.428;6.682;2023-12-20T06:07:38;18.53;;;7.90;;
11797;SDS011;5956;51.428;6.682;2023-12-20T06:10:05;14.90;;;6.37;;
11797;SDS011;5956;51.428;6.682;2023-12-20T06:12:32;13.30;;;6.00;;
11797;SDS011;5956;51.428;6.682;2023-12-20T06:15:00;15.03;;;6.67;;
11797;SDS011;5956;51.428;6.682;2023-12-20T06:17:27;16.93;;;6.13;;
11797;SDS011;5956;51.428;6.682;2023-12-20T06:19:55;20.17;;;6.83;;
11797;SDS011;5956;51.428;6.682;2023-12-20T06:22:23;16.53;;;6.27;;
11797;SDS011;5956;51.428;6.682;2023-12-20T06:24:50;14.67;;;6.70;;
11797;SDS011;5956;51.428;6.682;2023-12-20T06:27:17;14.37;;;6.73;;
11797;SDS011;5956;51.428;6.682;2023-12-20T06:29:43;15.73;;;6.57;;
11797;SDS011;5956;51.428;6.682;2023-12-20T06:32:10;13.33;;;6.20;;
11797;SDS011;5956;51.428;6.682;2023-12-20T06:34:37;11.53;;;5.93;;
11797;SDS011;5956;51.428;6.682;2023-12-20T06:37:04;15.90;;;5.80;;
11797;SDS011;5956;51.428;6.682;2023-12-20T06:39:33;13.97;;;6.00;;
11797;SDS011;5956;51.428;6.682;2023-12-20T06:42:00;9.43;;;5.47;;
11797;SDS011;5956;51.428;6.682;2023-12-20T06:44:27;17.43;;;7.17;;
11797;SDS011;5956;51.428;6.682;2023-12-20T06:46:53;17.80;;;6.47;;
11797;SDS011;5956;51.428;6.682;2023-12-20T06:49:20;15.00;;;5.47;;
11797;SDS011;5956;51.428;6.682;2023-12-20T06:51:47;13.50;;;5.00;;
11797;SDS011;5956;51.428;6.682;2023-12-20T06:54:14;13.17;;;5.37;;
11797;SDS011;5956;51.428;6.682;2023-12-20T06:56:42;12.73;;;5.40;;
11797;SDS011;5956;51.428;6.682;2023-12-20T06:59:08;13.07;;;5.03;;
11797;SDS011;5956;51.428;6.682;2023-12-20T07:01:35;17.93;;;6.00;;
11797;SDS011;5956;51.428;6.682;2023-12-20T07:04:01;13.47;;;5.37;;
11797;SDS011;5956;51.428;6.682;2023-12-20T07:06:28;12.27;;;5.13;;
11797;SDS011;5956;51.428;6.682;2023-12-20T07:08:55;14.83;;;5.93;;
11797;SDS011;5956;51.428;6.682;2023-12-20T07:11:22;14.27;;;5.27;;
11797;SDS011;5956;51.428;6.682;2023-12-20T07:13:51;17.50;;;5.40;;
11797;SDS011;5956;51.428;6.682;2023-12-20T07:16:17;18.23;;;5.27;;
11797;SDS011;5956;51.428;6.682;2023-12-20T07:18:43;14.93;;;5.40;;
11797;SDS011;5956;51.428;6.682;2023-12-20T07:21:10;11.03;;;5.47;;
11797;SDS011;5956;51.428;6.682;2023-12-20T07:23:36;15.03;;;5.77;;
11797;SDS011;5956;51.428;6.682;2023-12-20T07:26:03;16.83;;;6.50;;
11797;SDS011;5956;51.428;6.682;2023-12-20T07:28:30;17.00;;;5.93;;
11797;SDS011;5956;51.428;6.682;2023-12-20T07:30:58;13.47;;;5.93;;
11797;SDS011;5956;51.428;6.682;2023-12-20T07:33:24;16.33;;;6.03;;
11797;SDS011;5956;51.428;6.682;2023-12-20T07:35:51;16.17;;;5.80;;
11797;SDS011;5956;51.428;6.682;2023-12-20T07:38:18;15.87;;;5.70;;
11797;SDS011;5956;51.428;6.682;2023-12-20T07:40:44;13.70;;;5.87;;
11797;SDS011;5956;51.428;6.682;2023-12-20T07:43:11;14.60;;;5.63;;
11797;SDS011;5956;51.428;6.682;2023-12-20T07:45:37;14.83;;;5.37;;
11797;SDS011;5956;51.428;6.682;2023-12-20T07:48:06;14.03;;;5.67;;
11797;SDS011;5956;51.428;6.682;2023-12-20T07:50:32;14.30;;;5.60;;
11797;SDS011;5956;51.428;6.682;2023-12-20T07:52:59;15.60;;;6.00;;
11797;SDS011;5956;51.428;6.682;2023-12-20T07:55:26;15.67;;;6.20;;
11797;SDS011;5956;51.428;6.682;2023-12-20T07:57:52;16.63;;;6.30;;
11797;SDS011;5956;51.428;6.682;2023-12-20T08:00:19;16.63;;;6.13;;
11797;SDS011;5956;51.428;6.682;2023-12-20T08:02:45;19.33;;;6.90;;
11797;SDS011;5956;51.428;6.682;2023-12-20T08:05:13;13.47;;;6.20;;
11797;SDS011;5956;51.428;6.682;2023-12-20T08:07:40;16.83;;;7.37;;
11797;SDS011;5956;51.428;6.682;2023-12-20T08:10:06;17.53;;;7.13;;
11797;SDS011;5956;51.428;6.682;2023-12-20T08:12:33;16.97;;;7.20;;
11797;SDS011;5956;51.428;6.682;2023-12-20T08:15:00;23.03;;;6.63;;
11797;SDS011;5956;51.428;6.682;2023-12-20T08:17:26;14.27;;;6.43;;
11797;SDS011;5956;51.428;6.682;2023-12-20T08:19:53;15.23;;;7.00;;
11797;SDS011;5956;51.428;6.682;2023-12-20T08:22:20;14.50;;;6.73;;
11797;SDS011;5956;51.428;6.682;2023-12-20T08:24:47;19.60;;;6.60;;
11797;SDS011;5956;51.428;6.682;2023-12-20T08:27:13;18.67;;;6.50;;
11797;SDS011;5956;51.428;6.682;2023-12-20T08:29:40;14.63;;;6.03;;
11797;SDS011;5956;51.428;6.682;2023-12-20T08:32:06;20.10;;;6.33;;
11797;SDS011;5956;51.428;6.682;2023-12-20T08:34:33;14.57;;;5.53;;
11797;SDS011;5956;51.428;6.682;2023-12-20T08:36:59;16.10;;;5.20;;
11797;SDS011;5956;51.428;6.682;2023-12-20T08:39:27;17.70;;;5.13;;
11797;SDS011;5956;51.428;6.682;2023-12-20T08:41:55;15.40;;;4.77;;
11797;SDS011;5956;51.428;6.682;2023-12-20T08:44:22;20.07;;;5.83;;
11797;SDS011;5956;51.428;6.682;2023-12-20T08:46:48;10.73;;;4.90;;
11797;SDS011;5956;51.428;6.682;2023-12-20T08:49:15;11.43;;;4.83;;
11797;SDS011;5956;51.428;6.682;2023-12-20T08:51:42;12.33;;;4.73;;
11797;SDS011;5956;51.428;6.682;2023-12-20T08:54:08;13.30;;;4.90;;
11797;SDS011;5956;51.428;6.682;2023-12-20T08:56:36;9.17;;;4.77;;
11797;SDS011;5956;51.428;6.682;2023-12-20T08:59:03;15.70;;;5.57;;
11797;SDS011;5956;51.428;6.682;2023-12-20T09:01:30;14.97;;;4.77;;
11797;SDS011;5956;51.428;6.682;2023-12-20T09:03:56;13.70;;;4.87;;
11797;SDS011;5956;51.428;6.682;2023-12-20T09:06:23;17.70;;;4.80;;
11797;SDS011;5956;51.428;6.682;2023-12-20T09:08:50;18.70;;;5.30;;
11797;SDS011;5956;51.428;6.682;2023-12-20T09:11:17;18.53;;;5.37;;
11797;SDS011;5956;51.428;6.682;2023-12-20T09:13:45;14.53;;;4.37;;
11797;SDS011;5956;51.428;6.682;2023-12-20T09:16:11;13.73;;;4.87;;
11797;SDS011;5956;51.428;6.682;2023-12-20T09:18:40;13.67;;;5.10;;
11797;SDS011;5956;51.428;6.682;2023-12-20T09:21:07;10.27;;;4.63;;
11797;SDS011;5956;51.428;6.682;2023-12-20T09:23:34;13.17;;;4.97;;
11797;SDS011;5956;51.428;6.682;2023-12-20T09:26:01;11.30;;;4.93;;
11797;SDS011;5956;51.428;6.682;2023-12-20T09:28:28;14.93;;;5.10;;
11797;SDS011;5956;51.428;6.682;2023-12-20T09:30:56;13.20;;;4.83;;
11797;SDS011;5956;51.428;6.682;2023-12-20T09:33:22;12.33;;;5.13;;
11797;SDS011;5956;51.428;6.682;2023-12-20T09:35:50;16.17;;;5.20;;
11797;SDS011;5956;51.428;6.682;2023-12-20T09:38:16;17.10;;;5.73;;
11797;SDS011;5956;51.428;6.682;2023-12-20T09:40:43;9.00;;;4.37;;
11797;SDS011;5956;51.428;6.682;2023-12-20T09:43:10;12.27;;;5.03;;
11797;SDS011;5956;51.428;6.682;2023-12-20T09:45:37;12.57;;;4.83;;
11797;SDS011;5956;51.428;6.682;2023-12-20T09:48:07;16.27;;;5.53;;
11797;SDS011;5956;51.428;6.682;2023-12-20T09:50:37;10.33;;;4.90;;
11797;SDS011;5956;51.428;6.682;2023-12-20T09:53:03;10.03;;;4.70;;
11797;SDS011;5956;51.428;6.682;2023-12-20T09:55:31;16.90;;;5.47;;
11797;SDS011;5956;51.428;6.682;2023-12-20T09:57:59;15.77;;;5.10;;
11797;SDS011;5956;51.428;6.682;2023-12-20T10:00:26;12.40;;;4.90;;
11797;SDS011;5956;51.428;6.682;2023-12-20T10:02:55;15.47;;;4.67;;
11797;SDS011;5956;51.428;6.682;2023-12-20T10:05:26;17.00;;;5.20;;
11797;SDS011;5956;51.428;6.682;2023-12-20T10:07:52;14.37;;;5.23;;
11797;SDS011;5956;51.428;6.682;2023-12-20T10:10:19;14.67;;;5.00;;
11797;SDS011;5956;51.428;6.682;2023-12-20T10:13:00;12.47;;;4.70;;
11797;SDS011;5956;51.428;6.682;2023-12-20T10:15:27;12.47;;;4.57;;
11797;SDS011;5956;51.428;6.682;2023-12-20T10:17:54;11.13;;;4.63;;
11797;SDS011;5956;51.428;6.682;2023-12-20T10:20:21;16.43;;;4.33;;
11797;SDS011;5956;51.428;6.682;2023-12-20T10:22:49;12.83;;;5.13;;
11797;SDS011;5956;51.428;6.682;2023-12-20T10:25:18;12.13;;;4.40;;
11797;SDS011;5956;51.428;6.682;2023-12-20T10:27:46;12.30;;;4.53;;
11797;SDS011;5956;51.428;6.682;2023-12-20T10:30:13;13.10;;;4.90;;
11797;SDS011;5956;51.428;6.682;2023-12-20T10:32:40;12.50;;;4.17;;
11797;SDS011;5956;51.428;6.682;2023-12-20T10:35:08;12.83;;;4.17;;
11797;SDS011;5956;51.428;6.682;2023-12-20T10:37:35;11.97;;;4.43;;
11797;SDS011;5956;51.428;6.682;2023-12-20T10:40:03;12.57;;;5.10;;
11797;SDS011;5956;51.428;6.682;2023-12-20T10:42:31;12.97;;;4.50;;
11797;SDS011;5956;51.428;6.682;2023-12-20T10:44:59;15.53;;;4.90;;
11797;SDS011;5956;51.428;6.682;2023-12-20T10:47:26;14.77;;;4.50;;
11797;SDS011;5956;51.428;6.682;2023-12-20T10:49:52;14.13;;;4.67;;
11797;SDS011;5956;51.428;6.682;2023-12-20T10:52:19;13.07;;;5.10;;
11797;SDS011;5956;51.428;6.682;2023-12-20T10:54:49;13.93;;;4.70;;
11797;SDS011;5956;51.428;6.682;2023-12-20T10:57:17;13.27;;;4.37;;
11797;SDS011;5956;51.428;6.682;2023-12-20T10:59:44;14.40;;;5.07;;
11797;SDS011;5956;51.428;6.682;2023-12-20T11:02:12;14.30;;;5.90;;
11797;SDS011;5956;51.428;6.682;2023-12-20T11:04:44;15.87;;;5.70;;
11797;SDS011;5956;51.428;6.682;2023-12-20T11:07:17;11.43;;;4.80;;
11797;SDS011;5956;51.428;6.682;2023-12-20T11:09:49;11.37;;;4.53;;
11797;SDS011;5956;51.428;6.682;2023-12-20T11:12:19;16.10;;;5.33;;
11797;SDS011;5956;51.428;6.682;2023-12-20T11:14:54;15.43;;;5.23;;
11797;SDS011;5956;51.428;6.682;2023-12-20T11:17:22;10.37;;;4.37;;
11797;SDS011;5956;51.428;6.682;2023-12-20T11:20:05;12.30;;;5.07;;
11797;SDS011;5956;51.428;6.682;2023-12-20T11:22:33;11.23;;;4.57;;
11797;SDS011;5956;51.428;6.682;2023-12-20T11:25:02;10.50;;;5.13;;
11797;SDS011;5956;51.428;6.682;2023-12-20T11:27:31;14.23;;;5.40;;
11797;SDS011;5956;51.428;6.682;2023-12-20T11:29:58;11.53;;;4.67;;
11797;SDS011;5956;51.428;6.682;2023-12-20T11:32:28;9.83;;;4.30;;
11797;SDS011;5956;51.428;6.682;2023-12-20T11:34:55;11.87;;;5.13;;
11797;SDS011;5956;51.428;6.682;2023-12-20T11:37:28;12.77;;;4.70;;
11797;SDS011;5956;51.428;6.682;2023-12-20T11:39:55;13.13;;;5.17;;
11797;SDS011;5956;51.428;6.682;2023-12-20T11:42:22;14.50;;;5.10;;
11797;SDS011;5956;51.428;6.682;2023-12-20T11:44:50;11.17;;;4.43;;
11797;SDS011;5956;51.428;6.682;2023-12-20T11:47:17;12.97;;;5.47;;
11797;SDS011;5956;51.428;6.682;2023-12-20T11:49:44;12.90;;;5.17;;
11797;SDS011;5956;51.428;6.682;2023-12-20T11:52:11;13.17;;;6.10;;
11797;SDS011;5956;51.428;6.682;2023-12-20T11:54:38;16.00;;;5.27;;
11797;SDS011;5956;51.428;6.682;2023-12-20T11:57:05;11.63;;;4.97;;
11797;SDS011;5956;51.428;6.682;2023-12-20T11:59:31;20.53;;;4.80;;
11797;SDS011;5956;51.428;6.682;2023-12-20T12:01:59;11.17;;;4.90;;
11797;SDS011;5956;51.428;6.682;2023-12-20T12:04:26;15.27;;;5.60;;
11797;SDS011;5956;51.428;6.682;2023-12-20T12:06:53;14.63;;;5.23;;
11797;SDS011;5956;51.428;6.682;2023-12-20T12:09:20;10.37;;;4.57;;
11797;SDS011;5956;51.428;6.682;2023-12-20T12:11:47;14.40;;;5.40;;
11797;SDS011;5956;51.428;6.682;2023-12-20T12:14:14;11.40;;;4.70;;
11797;SDS011;5956;51.428;6.682;2023-12-20T12:16:41;12.33;;;4.80;;
11797;SDS011;5956;51.428;6.682;2023-12-20T12:19:10;11.13;;;4.73;;
11797;SDS011;5956;51.428;6.682;2023-12-20T12:21:45;18.23;;;5.17;;
11797;SDS011;5956;51.428;6.682;2023-12-20T12:24:12;14.13;;;5.30;;
11797;SDS011;5956;51.428;6.682;2023-12-20T12:26:39;13.60;;;4.77;;
11797;SDS011;5956;51.428;6.682;2023-12-20T12:29:06;12.30;;;4.87;;
11797;SDS011;5956;51.428;6.682;2023-12-20T12:31:33;10.90;;;4.73;;
11797;SDS011;5956;51.428;6.682;2023-12-20T12:33:59;14.43;;;4.50;;
11797;SDS011;5956;51.428;6.682;2023-12-20T12:36:30;9.73;;;4.80;;
11797;SDS011;5956;51.428;6.682;2023-12-20T12:38:57;12.60;;;4.73;;
11797;SDS011;5956;51.428;6.682;2023-12-20T12:41:23;12.17;;;4.40;;
11797;SDS011;5956;51.428;6.682;2023-12-20T12:43:50;11.00;;;4.87;;
11797;SDS011;5956;51.428;6.682;2023-12-20T12:46:16;13.43;;;4.73;;
11797;SDS011;5956;51.428;6.682;2023-12-20T12:48:43;11.77;;;4.70;;
11797;SDS011;5956;51.428;6.682;2023-12-20T12:51:11;11.30;;;4.20;;
11797;SDS011;5956;51.428;6.682;2023-12-20T12:53:40;13.77;;;4.70;;
11797;SDS011;5956;51.428;6.682;2023-12-20T12:56:08;9.97;;;3.87;;
11797;SDS011;5956;51.428;6.682;2023-12-20T12:58:36;11.53;;;4.70;;
11797;SDS011;5956;51.428;6.682;2023-12-20T13:01:03;13.63;;;5.97;;
11797;SDS011;5956;51.428;6.682;2023-12-20T13:03:30;11.93;;;5.10;;
11797;SDS011;5956;51.428;6.682;2023-12-20T13:05:57;13.00;;;4.77;;
11797;SDS011;5956;51.428;6.682;2023-12-20T13:08:24;12.80;;;4.43;;
11797;SDS011;5956;51.428;6.682;2023-12-20T13:10:52;7.27;;;4.77;;
11797;SDS011;5956;51.428;6.682;2023-12-20T13:13:19;9.53;;;4.07;;
11797;SDS011;5956;51.428;6.682;2023-12-20T13:15:46;7.37;;;4.70;;
11797;SDS011;5956;51.428;6.682;2023-12-20T13:18:18;9.43;;;5.73;;
11797;SDS011;5956;51.428;6.682;2023-12-20T13:20:45;11.93;;;5.37;;
11797;SDS011;5956;51.428;6.682;2023-12-20T13:23:11;12.90;;;5.37;;
11797;SDS011;5956;51.428;6.682;2023-12-20T13:25:39;14.30;;;5.77;;
11797;SDS011;5956;51.428;6.682;2023-12-20T13:28:07;12.67;;;5.33;;
11797;SDS011;5956;51.428;6.682;2023-12-20T13:30:34;12.77;;;5.50;;
11797;SDS011;5956;51.428;6.682;2023-12-20T13:33:01;11.67;;;5.63;;
11797;SDS011;5956;51.428;6.682;2023-12-20T13:35:28;9.60;;;5.10;;
11797;SDS011;5956;51.428;6.682;2023-12-20T13:37:55;15.50;;;6.07;;
11797;SDS011;5956;51.428;6.682;2023-12-20T13:40:22;13.10;;;5.80;;
11797;SDS011;5956;51.428;6.682;2023-12-20T13:42:49;12.53;;;5.70;;
11797;SDS011;5956;51.428;6.682;2023-12-20T13:45:17;11.70;;;5.67;;
11797;SDS011;5956;51.428;6.682;2023-12-20T13:47:44;16.63;;;5.67;;
11797;SDS011;5956;51.428;6.682;2023-12-20T13:50:11;10.47;;;5.90;;
11797;SDS011;5956;51.428;6.682;2023-12-20T13:52:38;11.97;;;5.43;;
11797;SDS011;5956;51.428;6.682;2023-12-20T13:55:05;15.50;;;6.53;;
11797;SDS011;5956;51.428;6.682;2023-12-20T13:57:33;14.10;;;6.93;;
11797;SDS011;5956;51.428;6.682;2023-12-20T14:00:03;12.70;;;6.87;;
11797;SDS011;5956;51.428;6.682;2023-12-20T14:02:31;17.20;;;7.70;;
11797;SDS011;5956;51.428;6.682;2023-12-20T14:04:58;15.00;;;7.10;;
11797;SDS011;5956;51.428;6.682;2023-12-20T14:07:25;14.37;;;7.70;;
11797;SDS011;5956;51.428;6.682;2023-12-20T14:09:54;18.73;;;9.53;;
11797;SDS011;5956;51.428;6.682;2023-12-20T14:12:21;12.70;;;7.80;;
11797;SDS011;5956;51.428;6.682;2023-12-20T14:14:49;19.67;;;8.07;;
11797;SDS011;5956;51.428;6.682;2023-12-20T14:17:15;18.50;;;7.77;;
11797;SDS011;5956;51.428;6.682;2023-12-20T14:19:43;18.47;;;7.03;;
11797;SDS011;5956;51.428;6.682;2023-12-20T14:22:10;17.07;;;7.53;;
11797;SDS011;5956;51.428;6.682;2023-12-20T14:24:41;17.40;;;7.70;;
11797;SDS011;5956;51.428;6.682;2023-12-20T14:27:07;15.13;;;8.27;;
11797;SDS011;5956;51.428;6.682;2023-12-20T14:29:36;12.27;;;6.30;;
11797;SDS011;5956;51.428;6.682;2023-12-20T14:32:03;14.20;;;7.30;;
11797;SDS011;5956;51.428;6.682;2023-12-20T14:34:30;13.13;;;6.70;;
11797;SDS011;5956;51.428;6.682;2023-12-20T14:36:58;14.43;;;7.70;;
11797;SDS011;5956;51.428;6.682;2023-12-20T14:39:25;12.17;;;6.30;;
11797;SDS011;5956;51.428;6.682;2023-12-20T14:41:52;17.40;;;7.07;;
11797;SDS011;5956;51.428;6.682;2023-12-20T14:44:19;12.13;;;6.73;;
11797;SDS011;5956;51.428;6.682;2023-12-20T14:46:46;14.03;;;6.70;;